Time;durP1;ratioP1;P1;durP2;ratioP2;P2;SDS_P1;SDS_P2;PMS_P1;PMS_P2;Temp;Humidity;BMP_temperature;BMP_pressure;BME280_temperature;BME280_humidity;BME280_pressure;Samples;Min_cycle;Max_cycle;Signal;HPM_P1;HPM_P2
2022/01/06 00:00:24;;;;;;;13.48;5.00;;;;;;;;;;5064648;28;20063;-61
2022/01/06 00:02:50;;;;;;;17.17;3.30;;;;;;;;;;5061715;28;20047;-61
2022/01/06 00:05:15;;;;;;;21.85;4.00;;;4.80;99.90;;;;;;5068569;28;20044;-61
2022/01/06 00:07:41;;;;;;;15.73;2.90;;;;;;;;;;5071190;28;20037;-61
2022/01/06 00:10:11;;;;;;;17.08;3.38;;;;;;;;;;5071475;28;20339;-62
2022/01/06 00:13:03;;;;;;;18.05;3.92;;;;;;;;;;5071492;28;20045;-61
2022/01/06 00:23:28;;;;;;;8.35;3.10;;;;;;;;;;5071396;28;20044;-61
2022/01/06 00:25:54;;;;;;;11.90;2.50;;;;;;;;;;5070867;28;20041;-61
2022/01/06 00:28:20;;;;;;;17.08;3.30;;;;;;;;;;5071293;28;20044;-61
2022/01/06 00:30:46;;;;;;;11.38;2.47;;;;;;;;;;5070929;28;20040;-61
2022/01/06 00:33:13;;;;;;;11.80;2.85;;;;;;;;;;5070617;28;20041;-61
2022/01/06 00:35:39;;;;;;;16.48;4.35;;;;;;;;;;5072800;28;20491;-62
2022/01/06 00:38:07;;;;;;;25.08;3.63;;;;;;;;;;5056623;28;20036;-62
2022/01/06 00:40:33;;;;;;;11.13;2.70;;;;;;;;;;5074814;28;20146;-61
2022/01/06 00:42:59;;;;;;;11.60;2.60;;;4.30;99.90;;;;;;5056621;28;20479;-61
2022/01/06 00:45:25;;;;;;;15.52;2.95;;;;;;;;;;5053558;28;20044;-61
2022/01/06 00:47:50;;;;;;;17.15;2.75;;;4.20;99.90;;;;;;5056162;28;20083;-61
2022/01/06 00:50:16;;;;;;;17.80;3.65;;;;;;;;;;5074462;28;20434;-61
2022/01/06 00:52:42;;;;;;;15.93;3.67;;;;;;;;;;5074406;28;20414;-61
2022/01/06 00:55:08;;;;;;;14.45;3.55;;;;;;;;;;5074070;28;20048;-61
2022/01/06 00:57:34;;;;;;;11.30;2.53;;;4.20;99.90;;;;;;5074064;28;20036;-61
2022/01/06 01:00:00;;;;;;;11.15;3.47;;;;;;;;;;5074194;28;20033;-60
2022/01/06 01:02:25;;;;;;;13.70;3.10;;;3.90;99.90;;;;;;5074098;28;20041;-60
2022/01/06 01:04:51;;;;;;;19.55;3.00;;;;;;;;;;5073839;28;20040;-61
2022/01/06 01:07:17;;;;;;;14.57;3.55;;;;;;;;;;5073823;28;20048;-61
2022/01/06 01:09:43;;;;;;;20.23;4.13;;;;;;;;;;5074035;28;20066;-62
2022/01/06 01:12:09;;;;;;;14.90;3.53;;;;;;;;;;5073987;28;20071;-61
2022/01/06 01:14:52;;;;;;;21.83;4.93;;;;;;;;;;5073575;28;20040;-60
2022/01/06 01:17:18;;;;;;;16.52;2.85;;;;;;;;;;5073674;28;20040;-60
2022/01/06 01:19:44;;;;;;;12.70;3.13;;;;;;;;;;5073622;28;20046;-61
2022/01/06 01:22:10;;;;;;;12.30;3.22;;;;;;;;;;5073821;28;20098;-61
2022/01/06 01:24:36;;;;;;;13.68;2.85;;;3.90;99.90;;;;;;5073362;28;20384;-61
2022/01/06 01:27:02;;;;;;;15.90;3.35;;;4.00;99.90;;;;;;5073833;28;20048;-62
2022/01/06 01:29:30;;;;;;;16.15;3.25;;;;;;;;;;5073734;28;20040;-61
2022/01/06 01:31:57;;;;;;;13.40;3.00;;;4.10;99.90;;;;;;5073625;28;20044;-62
2022/01/06 01:34:26;;;;;;;17.55;4.88;;;4.10;99.90;;;;;;5073407;28;20072;-61
2022/01/06 01:36:55;;;;;;;16.75;3.22;;;4.10;99.90;;;;;;5055593;28;20119;-61
2022/01/06 01:39:21;;;;;;;15.27;3.53;;;;;;;;;;5073573;28;20044;-61
2022/01/06 01:41:47;;;;;;;16.38;3.47;;;4.10;99.90;;;;;;5055372;28;20044;-61
2022/01/06 01:44:15;;;;;;;12.02;3.95;;;;;;;;;;5072898;28;20071;-62
2022/01/06 01:46:46;;;;;;;16.48;3.58;;;;;;;;;;5072907;28;20111;-62
2022/01/06 01:51:39;;;;;;;19.35;5.60;;;;;;;;;;5073015;28;20499;-61
2022/01/06 01:54:05;;;;;;;20.05;3.83;;;4.10;99.90;;;;;;5073122;28;20033;-61
2022/01/06 01:56:31;;;;;;;22.27;4.63;;;;;;;;;;5072630;28;20047;-61
2022/01/06 01:58:57;;;;;;;16.35;3.80;;;;;;;;;;5072840;28;20044;-60
2022/01/06 02:01:23;;;;;;;14.68;3.33;;;;;;;;;;5072978;28;20044;-60
2022/01/06 02:03:49;;;;;;;16.33;3.00;;;;;;;;;;5055086;28;20102;-61
2022/01/06 02:06:15;;;;;;;16.35;4.10;;;;;;;;;;5072626;28;20044;-61
2022/01/06 02:08:41;;;;;;;17.08;3.70;;;;;;;;;;5072849;28;20486;-61
2022/01/06 02:11:07;;;;;;;14.80;2.90;;;;;;;;;;5072734;28;20038;-61
2022/01/06 02:13:33;;;;;;;14.63;2.80;;;;;;;;;;5064094;28;20041;-61
2022/01/06 02:16:00;;;;;;;28.45;4.18;;;;;;;;;;5072383;28;20036;-61
2022/01/06 02:18:28;;;;;;;16.05;3.22;;;;;;;;;;5072648;28;20040;-60
2022/01/06 02:20:53;;;;;;;14.98;3.50;;;4.00;99.90;;;;;;5072604;28;20045;-61
2022/01/06 02:23:21;;;;;;;13.73;2.83;;;;;;;;;;5072636;28;20117;-62
2022/01/06 02:25:51;;;;;;;12.43;3.00;;;4.00;99.90;;;;;;5071970;28;20084;-60
2022/01/06 02:28:18;;;;;;;13.30;2.72;;;;;;;;;;5054549;28;20032;-61
2022/01/06 02:30:49;;;;;;;12.75;2.90;;;;;;;;;;5072422;28;20410;-62
2022/01/06 02:33:15;;;;;;;15.35;2.90;;;;;;;;;;5072255;28;20491;-60
2022/01/06 02:35:41;;;;;;;15.50;3.85;;;;;;;;;;5071880;28;20123;-60
2022/01/06 02:38:09;;;;;;;14.48;3.90;;;3.20;99.90;;;;;;5072186;28;20032;-60
2022/01/06 02:40:35;;;;;;;14.85;3.80;;;3.60;99.90;;;;;;5072262;28;20060;-61
2022/01/06 02:43:02;;;;;;;13.68;3.33;;;3.60;99.90;;;;;;5072181;28;20498;-60
2022/01/06 02:45:30;;;;;;;10.85;3.00;;;;;;;;;;5072059;28;20044;-62
2022/01/06 02:47:57;;;;;;;18.52;3.38;;;3.90;99.90;;;;;;5072063;28;20197;-62
2022/01/06 02:50:24;;;;;;;12.77;2.58;;;;;;;;;;5072190;28;20053;-62
2022/01/06 02:52:50;;;;;;;17.15;3.15;;;;;;;;;;5071961;28;20498;-62
2022/01/06 02:55:16;;;;;;;17.38;3.83;;;3.40;99.90;;;;;;5072164;28;20082;-62
2022/01/06 02:57:43;;;;;;;15.82;3.83;;;;;;;;;;5071307;28;20094;-62
2022/01/06 03:00:10;;;;;;;15.73;3.78;;;;;;;;;;5072033;28;20072;-62
2022/01/06 03:02:37;;;;;;;19.45;3.55;;;;;;;;;;5071972;28;20046;-62
2022/01/06 03:05:03;;;;;;;22.35;4.10;;;;;;;;;;5053950;28;20075;-62
2022/01/06 03:07:30;;;;;;;14.73;2.80;;;;;;;;;;5072084;28;20111;-61
2022/01/06 03:09:58;;;;;;;17.30;3.80;;;;;;;;;;5071955;28;20052;-61
2022/01/06 03:12:29;;;;;;;10.20;3.17;;;;;;;;;;5072001;28;20045;-62
2022/01/06 03:14:55;;;;;;;14.45;4.03;;;3.40;99.90;;;;;;5071464;28;20094;-62
2022/01/06 03:17:21;;;;;;;12.52;3.17;;;;;;;;;;5071222;28;20491;-62
2022/01/06 03:19:47;;;;;;;15.65;3.70;;;;;;;;;;5071422;28;20040;-61
2022/01/06 03:22:13;;;;;;;16.75;3.65;;;;;;;;;;5071402;28;20399;-61
2022/01/06 03:24:40;;;;;;;18.20;3.60;;;;;;;;;;5071420;28;20067;-62
2022/01/06 03:27:06;;;;;;;13.35;3.40;;;;;;;;;;5071215;28;20047;-61
2022/01/06 03:29:32;;;;;;;17.92;4.07;;;;;;;;;;5068858;28;20044;-61
2022/01/06 03:31:59;;;;;;;15.55;5.10;;;;;;;;;;5066744;28;20403;-61
2022/01/06 03:34:26;;;;;;;23.77;3.50;;;;;;;;;;5070044;28;20502;-62
2022/01/06 03:36:52;;;;;;;19.80;4.00;;;3.20;99.90;;;;;;5071084;28;20471;-62
2022/01/06 03:39:18;;;;;;;19.05;4.07;;;;;;;;;;5053291;28;20049;-61
2022/01/06 03:41:44;;;;;;;10.85;2.90;;;;;;;;;;5064752;28;20407;-61
2022/01/06 03:44:10;;;;;;;14.48;4.20;;;;;;;;;;5068343;28;20116;-61
2022/01/06 03:46:36;;;;;;;21.80;4.93;;;;;;;;;;5071534;28;20128;-62
2022/01/06 03:49:02;;;;;;;13.00;3.10;;;;;;;;;;5071250;28;20048;-62
2022/01/06 03:51:27;;;;;;;16.73;4.43;;;2.90;99.90;;;;;;5070799;28;20123;-62
2022/01/06 03:53:53;;;;;;;12.32;3.97;;;;;;;;;;5071108;28;20439;-61
2022/01/06 03:56:19;;;;;;;14.05;3.67;;;3.00;99.90;;;;;;5070785;28;20032;-62
2022/01/06 03:58:45;;;;;;;13.25;2.95;;;;;;;;;;5052881;28;20076;-62
2022/01/06 04:01:11;;;;;;;16.95;3.13;;;;;;;;;;5071142;28;20119;-62
2022/01/06 04:03:37;;;;;;;11.95;3.35;;;;;;;;;;5070921;28;20572;-62
2022/01/06 04:06:04;;;;;;;14.27;2.83;;;;;;;;;;5070895;28;20072;-61
2022/01/06 04:08:30;;;;;;;14.43;2.55;;;2.80;99.90;;;;;;5071811;28;20048;-62
2022/01/06 04:10:56;;;;;;;29.73;2.97;;;;;;;;;;5074994;28;20520;-61
2022/01/06 04:13:23;;;;;;;13.90;3.03;;;;;;;;;;5075191;28;20494;-61
2022/01/06 04:15:48;;;;;;;14.95;3.33;;;2.70;99.90;;;;;;5056875;28;20067;-62
2022/01/06 04:18:14;;;;;;;14.57;3.10;;;;;;;;;;5074996;28;20032;-61
2022/01/06 04:20:40;;;;;;;13.00;2.67;;;;;;;;;;5074822;28;20043;-61
2022/01/06 04:23:06;;;;;;;15.75;3.65;;;;;;;;;;5075166;28;20040;-62
2022/01/06 04:25:32;;;;;;;11.90;2.67;;;;;;;;;;5074612;28;20181;-62
2022/01/06 04:27:58;;;;;;;12.65;3.45;;;;;;;;;;5074268;28;20036;-62
2022/01/06 04:30:24;;;;;;;10.32;2.63;;;2.50;99.90;;;;;;5075023;28;20059;-62
2022/01/06 04:32:49;;;;;;;15.43;3.10;;;2.60;99.90;;;;;;5056684;28;20411;-62
2022/01/06 04:35:15;;;;;;;18.52;3.63;;;;;;;;;;5056325;28;20041;-62
2022/01/06 04:37:41;;;;;;;21.65;3.97;;;;;;;;;;5074370;28;20403;-61
2022/01/06 04:40:08;;;;;;;13.85;3.05;;;2.30;99.90;;;;;;5074496;28;20083;-60
2022/01/06 04:42:34;;;;;;;12.55;3.15;;;2.40;99.90;;;;;;5073292;28;20132;-61
2022/01/06 04:45:00;;;;;;;16.95;3.00;;;;;;;;;;5073780;28;20036;-60
2022/01/06 04:47:26;;;;;;;17.85;4.18;;;;;;;;;;5073731;28;20517;-60
2022/01/06 04:49:52;;;;;;;15.13;4.22;;;;;;;;;;5074366;28;20044;-62
2022/01/06 04:52:18;;;;;;;14.80;3.80;;;;;;;;;;5074202;28;20468;-62
2022/01/06 04:54:44;;;;;;;18.13;2.80;;;;;;;;;;5074307;28;20115;-62
2022/01/06 04:57:10;;;;;;;14.60;2.67;;;2.50;99.90;;;;;;5074225;28;20453;-61
2022/01/06 04:59:36;;;;;;;16.13;3.13;;;2.50;99.90;;;;;;5074111;28;20037;-62
2022/01/06 05:02:02;;;;;;;14.35;3.10;;;2.60;99.90;;;;;;5056134;28;20541;-62
2022/01/06 05:04:28;;;;;;;14.57;2.72;;;2.50;99.90;;;;;;5073826;28;20418;-62
2022/01/06 05:06:54;;;;;;;18.42;3.70;;;;;;;;;;5073911;28;20040;-62
2022/01/06 05:09:20;;;;;;;12.35;3.30;;;;;;;;;;5073741;28;20563;-61
2022/01/06 05:11:46;;;;;;;15.05;2.95;;;;;;;;;;5074037;28;20063;-61
2022/01/06 05:14:12;;;;;;;12.70;3.88;;;;;;;;;;5073763;28;20036;-62
2022/01/06 05:16:38;;;;;;;10.70;2.97;;;;;;;;;;5073860;28;20115;-62
2022/01/06 05:19:04;;;;;;;17.48;3.00;;;;;;;;;;5073792;28;20447;-62
2022/01/06 05:21:31;;;;;;;13.38;4.15;;;2.70;99.90;;;;;;5073195;28;20049;-62
2022/01/06 05:23:58;;;;;;;12.38;3.17;;;;;;;;;;5073698;28;20045;-62
2022/01/06 05:26:24;;;;;;;18.38;3.92;;;;;;;;;;5073250;28;20076;-63
2022/01/06 05:28:50;;;;;;;15.05;3.75;;;2.50;99.90;;;;;;5073634;28;20036;-62
2022/01/06 05:31:16;;;;;;;20.38;3.47;;;;;;;;;;5072801;28;20033;-62
2022/01/06 05:33:41;;;;;;;16.92;3.10;;;2.50;99.90;;;;;;5073385;28;20040;-62
2022/01/06 05:36:07;;;;;;;16.05;3.78;;;;;;;;;;5072973;28;20038;-61
2022/01/06 05:38:33;;;;;;;19.52;3.60;;;;;;;;;;5035497;28;20114;-61
2022/01/06 05:40:59;;;;;;;15.65;3.03;;;;;;;;;;5068755;28;20044;-61
2022/01/06 05:43:26;;;;;;;14.25;2.95;;;;;;;;;;5072917;28;20076;-61
2022/01/06 05:45:55;;;;;;;12.23;3.00;;;;;;;;;;5067565;28;20521;-61
2022/01/06 05:48:21;;;;;;;18.02;4.00;;;;;;;;;;5071241;28;20456;-61
2022/01/06 05:50:48;;;;;;;14.25;4.65;;;;;;;;;;5062362;28;20041;-62
2022/01/06 05:53:15;;;;;;;15.55;3.55;;;;;;;;;;5041975;28;20037;-62
2022/01/06 05:55:41;;;;;;;20.13;4.28;;;2.40;99.90;;;;;;5071984;28;20033;-62
2022/01/06 05:58:07;;;;;;;16.58;3.67;;;;;;;;;;5072452;28;20029;-61
2022/01/06 06:00:33;;;;;;;12.02;3.38;;;;;;;;;;5072443;28;20085;-62
2022/01/06 06:02:58;;;;;;;12.65;3.35;;;2.30;99.90;;;;;;5055029;28;20028;-62
2022/01/06 06:05:25;;;;;;;14.68;3.70;;;;;;;;;;5072141;28;20039;-61
2022/01/06 06:07:50;;;;;;;11.82;3.45;;;2.10;99.90;;;;;;5072353;28;20036;-62
2022/01/06 06:10:16;;;;;;;11.45;3.65;;;;;;;;;;5069356;22;20036;-62
2022/01/06 06:12:42;;;;;;;16.73;3.92;;;;;;;;;;5052147;28;20470;-61
2022/01/06 06:15:08;;;;;;;10.55;3.72;;;2.10;99.90;;;;;;5050622;28;20047;-61
2022/01/06 06:17:34;;;;;;;18.65;5.32;;;;;;;;;;5034151;28;20047;-61
2022/01/06 06:20:00;;;;;;;16.08;4.10;;;;;;;;;;5052497;28;20426;-61
2022/01/06 06:22:25;;;;;;;16.75;3.83;;;2.00;99.90;;;;;;5061062;28;20028;-61
2022/01/06 06:24:51;;;;;;;11.93;3.30;;;;;;;;;;5065086;28;20036;-62
2022/01/06 06:27:17;;;;;;;16.15;3.65;;;2.00;99.90;;;;;;5072682;28;20091;-61
2022/01/06 06:29:43;;;;;;;17.83;3.80;;;;;;;;;;5072531;28;20123;-62
2022/01/06 06:32:09;;;;;;;19.13;3.55;;;;;;;;;;5070194;28;20036;-61
2022/01/06 06:34:35;;;;;;;16.98;3.78;;;;;;;;;;5067752;28;20041;-62
2022/01/06 06:37:01;;;;;;;14.77;3.70;;;;;;;;;;5065787;28;20127;-62
2022/01/06 06:39:27;;;;;;;13.38;4.20;;;;;;;;;;5072805;28;20116;-63
2022/01/06 06:41:52;;;;;;;14.80;3.40;;;1.80;99.90;;;;;;5072418;28;20093;-62
2022/01/06 06:44:19;;;;;;;14.80;3.60;;;;;;;;;;5072224;28;20044;-62
2022/01/06 06:46:45;;;;;;;16.48;3.50;;;;;;;;;;5071896;28;20037;-62
2022/01/06 06:49:10;;;;;;;15.02;4.53;;;1.80;99.90;;;;;;5072253;28;20044;-62
2022/01/06 06:51:36;;;;;;;13.30;3.88;;;;;;;;;;5072337;28;20059;-62
2022/01/06 06:54:02;;;;;;;18.50;3.92;;;;;;;;;;5071951;28;20293;-62
2022/01/06 06:56:28;;;;;;;22.35;4.55;;;;;;;;;;5071861;28;20052;-61
2022/01/06 06:58:54;;;;;;;18.45;4.57;;;1.70;99.90;;;;;;5072280;28;20775;-61
2022/01/06 07:01:20;;;;;;;12.90;3.50;;;1.60;99.90;;;;;;5072115;28;20067;-61
2022/01/06 07:03:45;;;;;;;12.98;4.00;;;1.70;99.90;;;;;;5072095;28;20047;-62
2022/01/06 07:06:11;;;;;;;10.32;3.20;;;;;;;;;;5071513;28;20028;-61
2022/01/06 07:08:37;;;;;;;14.93;4.15;;;1.60;99.90;;;;;;5070431;28;20040;-61
2022/01/06 07:11:03;;;;;;;16.55;3.97;;;;;;;;;;5071933;28;20441;-62
2022/01/06 07:13:28;;;;;;;13.82;3.40;;;1.70;99.90;;;;;;5071895;28;20115;-62
2022/01/06 07:15:54;;;;;;;13.20;3.67;;;1.80;99.90;;;;;;5071531;28;20069;-61
2022/01/06 07:18:20;;;;;;;23.00;4.28;;;;;;;;;;5071597;28;20083;-61
2022/01/06 07:20:46;;;;;;;17.73;3.65;;;;;;;;;;5071552;28;20086;-62
2022/01/06 07:23:12;;;;;;;22.98;4.82;;;;;;;;;;5060944;28;20064;-61
2022/01/06 07:25:38;;;;;;;16.60;4.85;;;;;;;;;;5070359;28;20032;-62
2022/01/06 07:28:05;;;;;;;18.20;4.55;;;;;;;;;;5071459;28;20047;-62
2022/01/06 07:30:33;;;;;;;13.82;4.05;;;;;;;;;;5070438;28;20395;-61
2022/01/06 07:33:00;;;;;;;17.67;4.53;;;;;;;;;;5071486;28;20044;-63
2022/01/06 07:35:26;;;;;;;24.17;5.35;;;2.10;99.90;;;;;;5071009;28;20047;-61
2022/01/06 07:37:52;;;;;;;27.88;6.85;;;2.00;99.90;;;;;;5070362;28;20060;-62
2022/01/06 07:40:19;;;;;;;16.05;4.30;;;;;;;;;;5070642;28;20044;-61
2022/01/06 07:42:46;;;;;;;15.02;3.97;;;;;;;;;;5070764;28;20123;-62
2022/01/06 07:45:12;;;;;;;16.98;3.95;;;;;;;;;;5070487;28;20434;-61
2022/01/06 07:47:54;;;;;;;20.90;5.32;;;;;;;;;;5071335;28;20414;-62
2022/01/06 07:50:20;;;;;;;16.63;4.50;;;;;;;;;;5053389;28;20546;-61
2022/01/06 07:52:45;;;;;;;16.98;4.75;;;2.30;99.90;;;;;;5071672;28;20090;-61
2022/01/06 07:55:11;;;;;;;13.23;4.60;;;2.20;99.90;;;;;;5071259;28;20479;-61
2022/01/06 07:57:37;;;;;;;16.52;5.28;;;;;;;;;;5071350;28;20122;-61
2022/01/06 08:00:03;;;;;;;17.63;4.18;;;2.60;99.90;;;;;;5071194;28;20114;-61
2022/01/06 08:02:29;;;;;;;15.23;4.30;;;;;;;;;;5071195;28;20517;-62
2022/01/06 08:04:55;;;;;;;18.05;4.15;;;;;;;;;;5070817;28;20041;-61
2022/01/06 08:07:21;;;;;;;25.73;6.22;;;;;;;;;;5071228;28;20064;-62
2022/01/06 08:09:47;;;;;;;17.40;4.82;;;;;;;;;;5071225;28;20076;-62
2022/01/06 08:12:13;;;;;;;14.60;4.18;;;;;;;;;;5071156;28;20087;-61
2022/01/06 08:14:39;;;;;;;17.33;4.43;;;2.00;99.90;;;;;;5070837;28;20092;-61
2022/01/06 08:17:05;;;;;;;15.18;3.95;;;;;;;;;;5070835;28;20040;-62
2022/01/06 08:19:31;;;;;;;16.02;5.47;;;2.00;99.90;;;;;;5070977;28;20127;-62
2022/01/06 08:21:57;;;;;;;16.23;4.25;;;;;;;;;;5071139;28;20119;-61
2022/01/06 08:24:23;;;;;;;14.13;3.72;;;;;;;;;;5071075;28;20376;-61
2022/01/06 08:26:49;;;;;;;13.43;4.05;;;;;;;;;;5069287;28;20028;-62
2022/01/06 08:29:15;;;;;;;12.27;3.95;;;;;;;;;;5071013;28;20040;-61
2022/01/06 08:31:41;;;;;;;19.08;5.65;;;;;;;;;;5071040;28;20162;-62
2022/01/06 08:34:07;;;;;;;10.82;3.83;;;;;;;;;;5070848;28;20036;-62
2022/01/06 08:36:32;;;;;;;16.90;4.82;;;2.00;99.90;;;;;;5069295;28;20044;-62
2022/01/06 08:38:58;;;;;;;18.10;4.95;;;;;;;;;;5070853;28;20360;-62
2022/01/06 08:41:24;;;;;;;15.98;4.07;;;;;;;;;;5070864;28;20119;-62
2022/01/06 08:43:50;;;;;;;15.60;4.63;;;;;;;;;;5068699;28;20432;-62
2022/01/06 08:46:16;;;;;;;12.15;4.07;;;;;;;;;;5070313;28;20145;-62
2022/01/06 08:48:42;;;;;;;12.07;3.65;;;;;;;;;;5070457;28;20079;-62
2022/01/06 08:51:08;;;;;;;16.58;4.47;;;2.10;99.90;;;;;;5070826;28;20090;-62
2022/01/06 08:53:33;;;;;;;20.30;5.15;;;2.00;99.90;;;;;;5070875;28;20036;-62
2022/01/06 08:55:59;;;;;;;13.80;5.53;;;;;;;;;;5071776;28;20028;-62
2022/01/06 08:58:25;;;;;;;15.88;5.03;;;;;;;;;;5074059;28;20037;-62
2022/01/06 09:00:51;;;;;;;12.70;4.78;;;;;;;;;;5056265;28;20040;-62
2022/01/06 09:03:17;;;;;;;14.65;3.90;;;;;;;;;;5074139;28;20036;-61
2022/01/06 09:05:43;;;;;;;13.50;4.20;;;;;;;;;;5073828;28;20394;-62
2022/01/06 09:08:09;;;;;;;12.85;3.63;;;;;;;;;;5074025;28;20037;-62
2022/01/06 09:10:36;;;;;;;16.45;4.15;;;1.90;99.90;;;;;;5073949;28;20455;-61
2022/01/06 09:13:02;;;;;;;12.38;3.97;;;2.00;99.90;;;;;;5073928;28;20040;-61
2022/01/06 09:15:27;;;;;;;15.48;4.03;;;2.10;99.90;;;;;;5073801;28;20085;-62
2022/01/06 09:17:53;;;;;;;18.52;4.10;;;2.10;99.90;;;;;;5073645;28;20459;-62
2022/01/06 09:20:19;;;;;;;17.42;3.50;;;;;;;;;;5073856;28;20041;-62
2022/01/06 09:22:45;;;;;;;19.08;4.43;;;;;;;;;;5074182;28;20040;-62
2022/01/06 09:25:12;;;;;;;11.70;4.05;;;;;;;;;;5060371;28;20119;-62
2022/01/06 09:27:38;;;;;;;13.68;4.18;;;;;;;;;;5057814;28;20043;-63
2022/01/06 09:30:05;;;;;;;11.25;4.55;;;;;;;;;;5056367;28;20040;-63
2022/01/06 09:32:30;;;;;;;15.60;4.00;;;2.40;99.90;;;;;;5055759;28;20041;-62
2022/01/06 09:34:56;;;;;;;14.38;3.95;;;2.40;99.90;;;;;;5068032;28;20453;-63
2022/01/06 09:37:25;;;;;;;17.05;3.88;;;2.70;99.90;;;;;;5038933;28;20041;-63
2022/01/06 09:39:50;;;;;;;22.05;5.32;;;2.80;99.90;;;;;;5057315;28;20071;-63
2022/01/06 09:42:18;;;;;;;26.95;4.30;;;2.70;99.90;;;;;;5062282;28;20064;-63
2022/01/06 09:44:44;;;;;;;14.75;4.40;;;;;;;;;;5065314;28;20040;-63
2022/01/06 09:47:10;;;;;;;12.77;3.85;;;;;;;;;;5073332;28;20044;-63
2022/01/06 09:49:38;;;;;;;13.30;3.78;;;;;;;;;;5073564;28;20044;-63
2022/01/06 09:52:07;;;;;;;10.25;4.03;;;;;;;;;;5073451;28;20040;-63
2022/01/06 09:54:34;;;;;;;12.25;5.32;;;3.10;99.90;;;;;;5073059;28;20067;-63
2022/01/06 09:57:01;;;;;;;15.18;4.40;;;;;;;;;;5073604;28;20045;-63
2022/01/06 09:59:27;;;;;;;10.38;3.78;;;3.40;99.90;;;;;;5072884;28;20069;-63
2022/01/06 10:01:53;;;;;;;10.75;3.97;;;;;;;;;;5073530;28;20036;-63
2022/01/06 10:04:21;;;;;;;13.70;3.70;;;3.40;99.90;;;;;;5073041;28;20093;-63
2022/01/06 10:07:04;;;;;;;12.88;3.47;;;4.00;99.90;;;;;;5072708;28;20388;-63
2022/01/06 10:09:33;;;;;;;9.88;2.67;;;;;;;;;;5073245;28;20418;-63
2022/01/06 10:11:59;;;;;;;13.93;3.10;;;;;;;;;;5072588;28;20406;-63
2022/01/06 10:14:38;;;;;;;14.50;4.40;;;3.40;99.90;;;;;;5073266;28;20037;-63
2022/01/06 10:17:04;;;;;;;10.77;2.80;;;3.90;99.90;;;;;;5073017;28;20048;-63
2022/01/06 10:19:30;;;;;;;15.05;3.20;;;;;;;;;;5072917;28;20036;-63
2022/01/06 10:21:59;;;;;;;13.15;3.10;;;4.20;99.10;;;;;;5072714;28;20593;-63
2022/01/06 10:24:26;;;;;;;12.77;2.97;;;;;;;;;;5072555;28;20115;-63
2022/01/06 10:26:58;;;;;;;15.80;3.47;;;4.30;99.90;;;;;;5072729;28;20063;-63
2022/01/06 10:29:29;;;;;;;14.55;3.22;;;4.30;99.90;;;;;;5072670;28;20083;-63
2022/01/06 10:32:03;;;;;;;16.88;3.22;;;;;;;;;;5072858;28;20033;-63
2022/01/06 10:34:30;;;;;;;17.08;3.80;;;;;;;;;;5071707;28;20111;-63
2022/01/06 10:36:56;;;;;;;18.75;4.38;;;;;;;;;;5071934;28;20097;-63
2022/01/06 10:39:21;;;;;;;15.55;3.35;;;4.50;99.90;;;;;;5072580;28;20060;-63
2022/01/06 10:41:47;;;;;;;14.32;4.15;;;4.50;99.90;;;;;;5072698;28;20075;-63
2022/01/06 10:44:13;;;;;;;15.63;4.28;;;;;;;;;;5072079;28;20048;-64
2022/01/06 10:46:44;;;;;;;12.95;3.33;;;;;;;;;;5072212;28;20395;-63
2022/01/06 10:49:15;;;;;;;9.65;2.92;;;;;;;;;;5072626;28;20058;-64
2022/01/06 10:51:45;;;;;;;13.68;3.97;;;;;;;;;;5063528;28;20040;-63
2022/01/06 10:54:21;;;;;;;11.00;2.53;;;4.30;98.00;;;;;;5067512;28;20090;-63
2022/01/06 10:57:01;;;;;;;13.88;4.03;;;4.50;98.70;;;;;;5071227;28;20067;-63
2022/01/06 10:59:29;;;;;;;15.32;2.88;;;5.30;99.90;;;;;;5072569;28;20188;-63
2022/01/06 11:01:56;;;;;;;10.90;4.28;;;;;;;;;;5071611;28;20032;-63
2022/01/06 11:04:22;;;;;;;14.43;3.30;;;;;;;;;;5071691;28;20093;-63
2022/01/06 11:06:50;;;;;;;15.35;3.30;;;;;;;;;;5071575;28;20502;-63
2022/01/06 11:09:16;;;;;;;16.05;5.65;;;;;;;;;;5071620;28;20122;-63
2022/01/06 11:14:14;;;;;;;16.92;3.50;;;;;;;;;;5071491;28;20617;-64
2022/01/06 11:16:42;;;;;;;10.23;2.95;;;5.20;99.80;;;;;;5071507;28;20048;-64
2022/01/06 11:19:09;;;;;;;12.98;3.55;;;;;;;;;;5071163;28;20036;-64
2022/01/06 11:21:46;;;;;;;11.65;2.30;;;5.30;97.00;;;;;;5071576;28;20044;-63
2022/01/06 11:24:14;;;;;;;11.75;3.58;;;;;;;;;;5071500;28;20040;-64
2022/01/06 11:26:42;;;;;;;10.30;2.65;;;5.20;96.50;;;;;;5071383;28;20042;-63
2022/01/06 11:29:08;;;;;;;11.90;2.95;;;;;;;;;;5071687;28;20044;-63
2022/01/06 11:31:42;;;;;;;14.57;3.80;;;;;;;;;;5072087;28;20045;-63
2022/01/06 11:34:13;;;;;;;10.23;2.47;;;5.50;95.60;;;;;;5070469;28;20112;-63
2022/01/06 11:36:39;;;;;;;11.88;2.58;;;;;;;;;;5071320;28;20044;-64
2022/01/06 11:39:08;;;;;;;13.57;2.80;;;5.50;95.40;;;;;;5071640;28;20381;-64
2022/01/06 11:41:38;;;;;;;14.82;2.63;;;;;;;;;;5062963;28;20282;-64
2022/01/06 11:44:18;;;;;;;11.70;3.70;;;;;;;;;;5056067;28;20518;-64
2022/01/06 11:46:45;;;;;;;10.82;2.45;;;;;;;;;;5057446;28;20036;-64
2022/01/06 11:49:11;;;;;;;9.52;2.67;;;;;;;;;;5060698;28;20045;-63
2022/01/06 11:51:37;;;;;;;9.77;2.63;;;;;;;;;;5063043;28;20086;-63
2022/01/06 11:54:12;;;;;;;11.55;2.70;;;;;;;;;;5071073;28;20402;-63
2022/01/06 11:56:46;;;;;;;10.55;2.10;;;;;;;;;;5086824;28;20093;-63
2022/01/06 11:59:12;;;;;;;8.60;1.95;;;;;;;;;;5071387;28;20047;-64
2022/01/06 12:01:49;;;;;;;8.20;1.90;;;5.50;96.70;;;;;;5071062;28;20123;-63
2022/01/06 12:04:20;;;;;;;11.07;2.33;;;;;;;;;;5071372;28;20098;-64
2022/01/06 12:06:46;;;;;;;7.53;2.88;;;;;;;;;;5071403;28;20052;-63
2022/01/06 12:09:17;;;;;;;5.65;1.83;;;;;;;;;;5071265;28;20047;-64
2022/01/06 12:11:43;;;;;;;9.32;2.20;;;;;;;;;;5086646;28;20036;-63
2022/01/06 12:14:09;;;;;;;8.55;2.05;;;;;;;;;;5070991;28;20044;-63
2022/01/06 12:16:36;;;;;;;8.73;1.75;;;;;;;;;;5071321;28;20041;-64
2022/01/06 12:19:12;;;;;;;5.97;2.22;;;;;;;;;;5071648;28;20040;-64
2022/01/06 12:22:04;;;;;;;10.18;1.77;;;;;;;;;;5098678;22;20121;-91
2022/01/06 12:25:15;;;;;;;9.63;2.15;;;;;;;;;;5048050;28;20412;-91
2022/01/06 12:27:53;;;;;;;10.25;1.95;;;;;;;;;;5016093;28;20083;-89
2022/01/06 12:30:51;;;;;;;6.55;1.77;;;;;;;;;;5046059;28;20046;-89
2022/01/06 12:33:49;;;;;;;7.55;1.67;;;;;;;;;;5073855;28;20032;-90
2022/01/06 12:36:52;;;;;;;6.22;1.65;;;;;;;;;;5050081;28;20089;-92
2022/01/06 12:40:03;;;;;;;12.60;1.75;;;;;;;;;;5069138;28;20170;-90
2022/01/06 12:42:57;;;;;;;10.52;2.35;;;;;;;;;;5061512;28;20234;-90
2022/01/06 12:45:52;;;;;;;6.63;2.08;;;;;;;;;;5077508;28;20518;-91
2022/01/06 12:52:06;;;;;;;7.97;1.85;;;;;;;;;;5024146;28;20055;-90
2022/01/06 12:55:08;;;;;;;8.02;1.92;;;;;;;;;;5070768;28;20361;-91
2022/01/06 13:01:05;;;;;;;8.15;1.77;;;9.30;80.70;;;;;;5077169;22;20534;-60
2022/01/06 13:03:37;;;;;;;13.52;3.30;;;9.50;72.20;;;;;;5056084;28;20041;-60
2022/01/06 13:06:08;;;;;;;12.85;3.28;;;9.00;70.60;;;;;;5073417;28;20041;-60
2022/01/06 13:08:43;;;;;;;12.55;2.28;;;;;;;;;;5091676;28;20044;-60
2022/01/06 13:11:09;;;;;;;7.35;1.80;;;;;;;;;;5094038;28;20219;-60
2022/01/06 13:13:52;;;;;;;12.05;2.00;;;;;;;;;;5094274;28;20036;-60
2022/01/06 13:16:24;;;;;;;8.13;2.03;;;;;;;;;;5093166;28;20176;-60
2022/01/06 13:19:00;;;;;;;10.38;2.55;;;9.00;65.30;;;;;;5090691;28;20047;-62
2022/01/06 13:21:30;;;;;;;7.40;1.60;;;;;;;;;;5093897;28;20490;-62
2022/01/06 13:23:57;;;;;;;10.25;2.63;;;8.60;65.90;;;;;;5075891;28;20035;-62
2022/01/06 13:26:23;;;;;;;10.57;1.70;;;8.40;70.30;;;;;;5084995;28;20075;-62
2022/01/06 13:28:57;;;;;;;11.48;1.77;;;8.50;67.20;;;;;;5093605;28;20040;-60
2022/01/06 13:31:24;;;;;;;8.43;2.45;;;;;;;;;;5093897;28;20050;-60
2022/01/06 13:33:54;;;;;;;6.97;1.88;;;;;;;;;;5093960;28;20446;-60
2022/01/06 13:36:27;;;;;;;10.32;2.35;;;;;;;;;;5074840;28;20052;-60
2022/01/06 13:38:53;;;;;;;9.15;2.05;;;;;;;;;;5093388;28;20083;-60
2022/01/06 13:41:25;;;;;;;8.93;1.55;;;;;;;;;;5092876;28;20075;-60
2022/01/06 13:43:58;;;;;;;9.27;1.70;;;7.50;79.50;;;;;;5093364;28;20047;-61
2022/01/06 13:46:29;;;;;;;7.47;1.80;;;;;;;;;;5093260;28;20119;-60
2022/01/06 13:51:43;;;;;;;11.13;1.80;;;;;;;;;;5092507;28;20044;-60
2022/01/06 13:54:10;;;;;;;6.55;1.70;;;;;;;;;;5092544;28;20032;-60
2022/01/06 13:56:37;;;;;;;8.75;1.90;;;8.10;79.30;;;;;;5074131;28;20470;-59
2022/01/06 13:59:12;;;;;;;10.40;1.95;;;8.10;68.30;;;;;;5093059;28;20032;-60
2022/01/06 14:01:45;;;;;;;;;;;7.90;77.50;;;;;;5093433;28;20044;-60
2022/01/06 14:04:18;;;;;;;9.85;2.10;;;;;;;;;;5092993;28;19916;-61
2022/01/06 14:06:44;;;;;;;5.70;2.25;;;;;;;;;;5074354;28;20093;-60
2022/01/06 14:09:10;;;;;;;9.20;1.77;;;7.90;71.20;;;;;;5092914;28;20043;-60
2022/01/06 14:11:35;;;;;;;8.35;2.40;;;7.30;74.50;;;;;;5093039;28;20039;-60
2022/01/06 14:14:01;;;;;;;8.98;2.25;;;;;;;;;;5092980;28;20113;-60
2022/01/06 14:16:27;;;;;;;9.13;2.50;;;;;;;;;;5074562;28;20075;-61
2022/01/06 14:18:53;;;;;;;7.35;1.85;;;;;;;;;;5092701;28;20474;-61
2022/01/06 14:21:19;;;;;;;5.15;1.58;;;;;;;;;;5092457;28;20048;-61
2022/01/06 14:23:45;;;;;;;13.18;2.70;;;6.60;81.40;;;;;;5093110;28;20075;-61